Details for Norwegian Air Shuttle at EGKK




Go Back


Latest METAR
Local Time

EGKK 221050Z 24007KT 9999 FEW032 14/08 Q1020
22/09/2018, 12:19:08

Description
Results
Norwegian Air Shuttle Logo
Number of Pilots based at EGKK
6 Pilots Based here
Number of Norwegian Air Shuttle Flights Departed from EGKK
3 Flights Departed
Number of Norwegian Air Shuttle Flights Arrived at EGKK
0 Flights Arrived
Number of Norwegian Air Shuttle Schedules Departing from EGKK
8 Schedules
Number of Norwegian Air Shuttle Schedules Arriving at EGKK
13 Schedules
Number of Norwegian Air Shuttle Schedules Departing from EGKK availible today
2 Schedules Today
Number of Norwegian Air Shuttle Schedules Arriving at EGKK availible today
3 Schedules Today
Average Landing Rate at EGKK
-229 fpm
Norwegian Air Shuttle Average Landing Rate at EGKK
0 fpm
Total Fuel Purchased at EGKK by Norwegian Air Shuttle
25,804.38 kgs / 56,888.34 lbs

Pilots Based at EGKK


Pilot ID
Pilot Name
Pilot Rank
No. of Flights
No. of Flying Hours
Dan Symons
114
437.51
George Jones
35
95.53
Alexander Haynes
0
0
Maurice Lyon
179
846.41
Matthew Smith
93
700.29
William Shaw
180
430.37
Content